createdAt,value
2019-04-29T00:00:37.736Z,99.99
2019-04-29T00:01:37.716Z,99.99
2019-04-29T00:02:37.671Z,99.99
2019-04-29T00:03:37.687Z,99.99
2019-04-29T00:04:37.630Z,99.99
2019-04-29T00:05:37.696Z,99.99
2019-04-29T00:06:37.599Z,99.99
2019-04-29T00:07:37.540Z,99.99
2019-04-29T00:08:37.519Z,99.99
2019-04-29T00:09:37.478Z,99.99
2019-04-29T00:10:37.527Z,99.99
2019-04-29T00:11:37.413Z,99.99
2019-04-29T00:12:37.383Z,99.99
2019-04-29T00:13:37.445Z,99.99
2019-04-29T00:14:37.330Z,99.99
2019-04-29T00:15:37.368Z,99.99
2019-04-29T00:16:37.268Z,99.99
2019-04-29T00:17:37.243Z,99.99
2019-04-29T00:18:37.217Z,99.99
2019-04-29T00:19:37.299Z,99.99
2019-04-29T00:20:37.161Z,99.99
2019-04-29T00:21:37.208Z,99.99
2019-04-29T00:22:37.087Z,99.99
2019-04-29T00:23:37.056Z,99.99
2019-04-29T00:24:37.118Z,99.99
2019-04-29T00:25:37.006Z,99.99
2019-04-29T00:26:37.026Z,99.99
2019-04-29T00:27:36.951Z,99.99
2019-04-29T00:28:36.935Z,99.99
2019-04-29T00:29:36.947Z,99.99
2019-04-29T00:30:36.869Z,99.99
2019-04-29T00:31:36.858Z,99.99
2019-04-29T00:32:36.806Z,99.99
2019-04-29T00:33:36.778Z,99.99
2019-04-29T00:34:36.755Z,99.99
2019-04-29T00:35:36.776Z,99.99
2019-04-29T00:36:36.697Z,99.99
2019-04-29T00:37:36.752Z,99.99
2019-04-29T00:38:36.628Z,99.99
2019-04-29T00:39:36.607Z,99.99
2019-04-29T00:40:36.616Z,99.99
2019-04-29T00:41:36.549Z,99.99
2019-04-29T00:42:36.539Z,99.99
2019-04-29T00:43:36.485Z,99.99
2019-04-29T00:44:36.469Z,99.99
2019-04-29T00:45:36.427Z,99.99
2019-04-29T00:46:36.472Z,99.99
2019-04-29T00:47:36.368Z,99.99
2019-04-29T00:48:36.357Z,99.99
2019-04-29T00:49:36.315Z,99.99
2019-04-29T00:50:36.279Z,99.99
2019-04-29T00:51:36.278Z,99.99
2019-04-29T00:52:36.216Z,99.99
2019-04-29T00:53:36.295Z,99.99
2019-04-29T00:54:36.184Z,99.99
2019-04-29T00:55:36.137Z,99.99
2019-04-29T00:56:36.106Z,99.99
2019-04-29T00:57:36.118Z,99.99
2019-04-29T00:58:36.050Z,99.99
2019-04-29T00:59:36.136Z,99.99
2019-04-29T01:00:35.989Z,99.99
2019-04-29T01:01:36.051Z,99.99
2019-04-29T01:02:35.926Z,99.99
2019-04-29T01:03:35.956Z,99.99
2019-04-29T01:04:35.887Z,99.99
2019-04-29T01:05:35.875Z,99.99
2019-04-29T01:06:35.924Z,99.99
2019-04-29T01:07:35.799Z,99.99
2019-04-29T01:08:35.786Z,99.99
2019-04-29T01:09:35.729Z,99.99
2019-04-29T01:10:35.796Z,99.99
2019-04-29T01:11:35.673Z,99.99
2019-04-29T01:12:35.717Z,99.99
2019-04-29T01:13:35.621Z,99.99
2019-04-29T01:14:35.634Z,99.99
2019-04-29T01:15:35.559Z,99.99
2019-04-29T01:16:35.536Z,99.99
2019-04-29T01:17:35.487Z,99.99
2019-04-29T01:18:35.548Z,99.99
2019-04-29T01:19:35.438Z,99.99
2019-04-29T01:20:35.466Z,99.99
2019-04-29T01:21:35.390Z,99.99
2019-04-29T01:22:35.359Z,99.99
2019-04-29T01:23:35.331Z,99.99
2019-04-29T01:24:35.393Z,99.99
2019-04-29T01:25:38.134Z,99.99
2019-04-29T01:26:35.298Z,99.99
2019-04-29T01:27:35.207Z,99.99
2019-04-29T01:28:35.179Z,99.99
2019-04-29T01:29:35.216Z,99.99
2019-04-29T01:30:35.106Z,99.99
2019-04-29T01:31:35.153Z,99.99
2019-04-29T01:32:35.058Z,99.99
2019-04-29T01:33:35.036Z,99.99
2019-04-29T01:34:35.099Z,99.99
2019-04-29T01:35:34.971Z,99.99
2019-04-29T01:36:34.956Z,99.99
2019-04-29T01:37:34.986Z,99.99
2019-04-29T01:38:34.985Z,99.99
2019-04-29T01:39:34.858Z,99.99
2019-04-29T01:40:34.887Z,99.99
2019-04-29T01:41:34.801Z,99.99
2019-04-29T01:42:34.797Z,99.99
2019-04-29T01:43:34.726Z,99.99
2019-04-29T01:44:34.697Z,99.99
2019-04-29T01:45:34.718Z,99.99
2019-04-29T01:46:34.641Z,99.99
2019-04-29T01:47:34.629Z,99.99
2019-04-29T01:48:34.604Z,99.99
2019-04-29T01:49:34.560Z,99.99
2019-04-29T01:50:34.525Z,99.99
2019-04-29T01:51:34.558Z,99.99
2019-04-29T01:52:34.470Z,99.99
2019-04-29T01:53:34.475Z,99.99
2019-04-29T01:54:34.407Z,99.99
2019-04-29T01:55:34.376Z,99.99
2019-04-29T01:56:34.350Z,99.99
2019-04-29T01:57:34.397Z,99.99
2019-04-29T01:58:34.286Z,99.99
2019-04-29T01:59:34.306Z,99.99
2019-04-29T02:00:34.316Z,99.99
2019-04-29T02:01:34.197Z,99.99
2019-04-29T02:02:34.232Z,99.99
2019-04-29T02:03:34.141Z,99.99
2019-04-29T02:04:34.152Z,99.99
2019-04-29T02:05:34.102Z,99.99
2019-04-29T02:06:34.060Z,99.99
2019-04-29T02:07:34.071Z,99.99
2019-04-29T02:08:33.999Z,99.99
2019-04-29T02:09:34.068Z,99.99
2019-04-29T02:10:33.936Z,99.99
2019-04-29T02:11:33.907Z,99.99
2019-04-29T02:12:33.876Z,99.99
2019-04-29T02:13:33.896Z,99.99
2019-04-29T02:14:33.821Z,99.99
2019-04-29T02:15:33.806Z,99.99
2019-04-29T02:16:33.773Z,99.99
2019-04-29T02:17:33.730Z,99.99
2019-04-29T02:18:33.728Z,99.99
2019-04-29T02:19:33.668Z,99.99
2019-04-29T02:20:33.736Z,99.99
2019-04-29T02:21:33.607Z,99.99
2019-04-29T02:22:33.588Z,99.99
2019-04-29T02:23:33.555Z,99.99
2019-04-29T02:24:33.568Z,99.99
2019-04-29T02:25:33.485Z,99.99
2019-04-29T02:26:33.490Z,99.99
2019-04-29T02:27:33.426Z,99.99
2019-04-29T02:28:33.488Z,99.99
2019-04-29T02:29:33.377Z,99.99
2019-04-29T02:30:33.400Z,99.99
2019-04-29T02:31:33.311Z,99.99
2019-04-29T02:32:33.310Z,99.99
2019-04-29T02:33:33.319Z,99.99
2019-04-29T02:34:33.229Z,99.99
2019-04-29T02:35:33.228Z,99.99
2019-04-29T02:36:33.177Z,99.99
2019-04-29T02:37:33.252Z,99.99
2019-04-29T02:38:33.106Z,99.99
2019-04-29T02:39:33.083Z,99.99
2019-04-29T02:40:33.072Z,99.99
2019-04-29T02:41:33.018Z,99.99
2019-04-29T02:42:33.081Z,99.99
2019-04-29T02:43:32.970Z,99.99
2019-04-29T02:44:32.926Z,99.99
2019-04-29T02:45:33.011Z,99.99
2019-04-29T02:46:32.870Z,99.99
2019-04-29T02:47:32.913Z,99.99
2019-04-29T02:48:34.591Z,99.99
2019-04-29T02:49:32.783Z,99.99
2019-04-29T02:50:32.746Z,99.99
2019-04-29T02:51:32.838Z,99.99
2019-04-29T02:52:32.691Z,99.99
2019-04-29T02:53:32.751Z,99.99
2019-04-29T02:54:32.633Z,99.99
2019-04-29T02:55:32.598Z,99.99
2019-04-29T02:56:32.680Z,99.99
2019-04-29T02:57:32.547Z,99.99
2019-04-29T02:58:32.588Z,99.99
2019-04-29T02:59:32.482Z,99.99
2019-04-29T03:00:32.463Z,99.99
2019-04-29T03:01:32.423Z,99.99
2019-04-29T03:02:32.536Z,99.99
2019-04-29T03:03:32.359Z,99.99
2019-04-29T03:04:32.435Z,99.99
2019-04-29T03:05:32.300Z,99.99
2019-04-29T03:06:32.271Z,99.99
2019-04-29T03:07:32.407Z,99.99
2019-04-29T03:08:32.281Z,99.99
2019-04-29T03:09:32.298Z,99.99
2019-04-29T03:10:32.155Z,99.99
2019-04-29T03:11:32.124Z,99.99
2019-04-29T03:12:32.106Z,99.99
2019-04-29T03:13:32.180Z,99.99
2019-04-29T03:14:32.041Z,99.99
2019-04-29T03:15:32.097Z,99.99
2019-04-29T03:16:32.010Z,99.99
2019-04-29T03:17:32.000Z,99.99
2019-04-29T03:18:31.933Z,99.99
2019-04-29T03:19:32.006Z,99.99
2019-04-29T03:20:31.858Z,99.99
2019-04-29T03:21:31.922Z,99.99
2019-04-29T03:22:31.829Z,99.99
2019-04-29T03:23:31.849Z,99.99
2019-04-29T03:24:31.838Z,99.99
2019-04-29T03:25:31.706Z,99.99
2019-04-29T03:26:31.758Z,99.99
2019-04-29T03:27:31.671Z,99.99
2019-04-29T03:28:31.668Z,99.99
2019-04-29T03:29:31.595Z,99.99
2019-04-29T03:30:31.593Z,99.99
2019-04-29T03:31:38.358Z,99.99
2019-04-29T03:32:31.599Z,99.99
2019-04-29T03:33:31.470Z,99.99
2019-04-29T03:34:31.545Z,99.99
2019-04-29T03:35:31.411Z,99.99
2019-04-29T03:36:31.416Z,99.99
2019-04-29T03:37:31.348Z,99.99
2019-04-29T03:38:31.356Z,99.99
2019-04-29T03:39:31.288Z,99.99
2019-04-29T03:40:31.345Z,99.99
2019-04-29T03:41:31.230Z,99.99
2019-04-29T03:42:31.248Z,99.99
2019-04-29T03:43:31.168Z,99.99
2019-04-29T03:44:31.145Z,99.99
2019-04-29T03:45:31.168Z,99.99
2019-04-29T03:46:31.078Z,99.99
2019-04-29T03:47:31.092Z,99.99
2019-04-29T03:48:31.016Z,99.99
2019-04-29T03:49:30.999Z,99.99
2019-04-29T03:50:30.996Z,99.99
2019-04-29T03:51:30.938Z,99.99
2019-04-29T03:52:30.984Z,99.99
2019-04-29T03:53:30.869Z,99.99
2019-04-29T03:54:30.948Z,99.99
2019-04-29T03:55:39.737Z,99.99
2019-04-29T03:56:30.789Z,99.99
2019-04-29T03:57:30.854Z,99.99
2019-04-29T03:58:30.717Z,99.99
2019-04-29T03:59:30.769Z,99.99
2019-04-29T04:00:30.765Z,99.99
2019-04-29T04:01:30.641Z,99.99
2019-04-29T04:02:30.709Z,99.99
2019-04-29T04:03:30.576Z,99.99
2019-04-29T04:04:30.599Z,99.99
2019-04-29T04:05:30.516Z,99.99
2019-04-29T04:06:30.518Z,99.99
2019-04-29T04:07:30.450Z,99.99
2019-04-29T04:08:30.518Z,99.99
2019-04-29T04:09:30.386Z,99.99
2019-04-29T04:10:30.450Z,99.99
2019-04-29T04:11:30.435Z,99.99
2019-04-29T04:12:30.302Z,99.99
2019-04-29T04:13:30.351Z,99.99
2019-04-29T04:14:30.247Z,99.99
2019-04-29T04:15:30.259Z,99.99
2019-04-29T04:16:30.270Z,99.99
2019-04-29T04:17:30.156Z,99.99
2019-04-29T04:18:30.315Z,99.99
2019-04-29T04:19:30.097Z,99.99
2019-04-29T04:20:30.107Z,99.99
2019-04-29T04:21:30.043Z,99.99
2019-04-29T04:22:29.995Z,99.99
2019-04-29T04:23:30.019Z,99.99
2019-04-29T04:24:29.940Z,99.99
2019-04-29T04:25:29.950Z,99.99
2019-04-29T04:26:29.878Z,99.99
2019-04-29T04:27:29.859Z,99.99
2019-04-29T04:28:29.829Z,99.99
2019-04-29T04:29:29.884Z,99.99
2019-04-29T04:30:29.761Z,99.99
2019-04-29T04:31:29.765Z,99.99
2019-04-29T04:32:29.710Z,99.99
2019-04-29T04:33:29.675Z,99.99
2019-04-29T04:34:29.701Z,99.99
2019-04-29T04:35:29.610Z,99.99
2019-04-29T04:36:29.600Z,99.99
2019-04-29T04:37:29.565Z,99.99
2019-04-29T04:38:29.519Z,99.99
2019-04-29T04:39:29.518Z,99.99
2019-04-29T04:40:29.465Z,99.99
2019-04-29T04:41:29.536Z,99.99
2019-04-29T04:42:29.978Z,99.99
2019-04-29T04:43:29.458Z,99.99
2019-04-29T04:44:29.346Z,99.99
2019-04-29T04:45:29.356Z,99.99
2019-04-29T04:46:29.320Z,99.99
2019-04-29T04:47:29.270Z,99.99
2019-04-29T04:48:29.217Z,99.99
2019-04-29T04:49:29.187Z,99.99
2019-04-29T04:50:29.190Z,99.99
2019-04-29T04:51:29.127Z,99.99
2019-04-29T04:52:29.199Z,99.99
2019-04-29T04:53:29.082Z,99.99
2019-04-29T04:54:31.414Z,99.99
2019-04-29T04:55:29.017Z,99.99
2019-04-29T04:56:29.020Z,99.99
2019-04-29T04:57:28.949Z,99.99
2019-04-29T04:58:29.030Z,99.99
2019-04-29T04:59:28.897Z,99.99
2019-04-29T05:00:28.859Z,99.99
2019-04-29T05:01:28.848Z,99.99
2019-04-29T05:02:28.798Z,99.99
2019-04-29T05:03:28.859Z,99.99
2019-04-29T05:04:28.747Z,99.99
2019-04-29T05:05:28.719Z,99.99
2019-04-29T05:06:28.776Z,99.99
2019-04-29T05:07:28.667Z,99.99
2019-04-29T05:08:28.698Z,99.99
2019-04-29T05:09:28.604Z,99.99
2019-04-29T05:10:28.612Z,99.99
2019-04-29T05:11:28.531Z,99.99
2019-04-29T05:12:28.519Z,99.99
2019-04-29T05:13:28.801Z,99.99
2019-04-29T05:14:28.529Z,99.99
2019-04-29T05:15:28.409Z,99.99
2019-04-29T05:16:28.387Z,99.99
2019-04-29T05:17:28.447Z,99.99
2019-04-29T05:18:28.315Z,99.99
2019-04-29T05:19:28.356Z,99.99
2019-04-29T05:20:28.270Z,99.99
2019-04-29T05:21:28.226Z,99.99
2019-04-29T05:22:28.201Z,99.99
2019-04-29T05:23:28.193Z,99.99
2019-04-29T05:24:28.147Z,99.99
2019-04-29T05:25:28.198Z,99.99
2019-04-29T05:26:28.077Z,99.99
2019-04-29T05:27:28.060Z,99.99
2019-04-29T05:28:28.030Z,99.99
2019-04-29T05:29:28.730Z,99.99
2019-04-29T05:30:27.970Z,99.99
2019-04-29T05:31:28.037Z,99.99
2019-04-29T05:32:27.918Z,99.99
2019-04-29T05:33:28.966Z,99.99
2019-04-29T05:34:27.846Z,99.99
2019-04-29T05:35:27.862Z,99.99
2019-04-29T05:36:27.797Z,99.99
2019-04-29T05:37:27.771Z,99.99
2019-04-29T05:38:27.742Z,99.99
2019-04-29T05:39:27.791Z,99.99
2019-04-29T05:40:27.667Z,99.99
2019-04-29T05:41:30.159Z,99.99
2019-04-29T05:42:27.619Z,99.99
2019-04-29T05:43:32.206Z,99.99
2019-04-29T05:44:27.577Z,99.99
2019-04-29T05:45:27.631Z,99.99
2019-04-29T05:46:27.499Z,99.99
2019-04-29T05:47:27.539Z,99.99
2019-04-29T05:48:31.610Z,99.99
2019-04-29T05:49:27.410Z,99.99
2019-04-29T05:50:27.463Z,99.99
2019-04-29T05:51:28.533Z,99.99
2019-04-29T05:52:29.993Z,99.99
2019-04-29T05:53:27.299Z,99.99
2019-04-29T05:54:31.805Z,99.99
2019-04-29T05:55:27.288Z,99.99
2019-04-29T05:56:27.219Z,99.99
2019-04-29T05:57:27.197Z,99.99
2019-04-29T05:58:27.147Z,99.99
2019-04-29T05:59:27.206Z,99.99
2019-04-29T06:00:27.087Z,99.99
2019-04-29T06:01:27.127Z,99.99
2019-04-29T06:02:33.642Z,99.99
2019-04-29T06:03:27.039Z,99.99
2019-04-29T06:04:28.680Z,99.99
2019-04-29T06:05:26.958Z,99.99
2019-04-29T06:06:26.956Z,99.99
2019-04-29T06:07:27.055Z,99.99
2019-04-29T06:08:26.969Z,99.99
2019-04-29T06:09:26.827Z,99.99
2019-04-29T06:10:26.799Z,99.99
2019-04-29T06:11:26.768Z,99.99
2019-04-29T06:12:26.787Z,99.99
2019-04-29T06:13:26.708Z,99.99
2019-04-29T06:14:26.709Z,99.99
2019-04-29T06:15:26.643Z,99.99
2019-04-29T06:16:26.641Z,99.99
2019-04-29T06:17:26.630Z,99.99
2019-04-29T06:18:26.569Z,99.99
2019-04-29T06:19:26.642Z,99.99
2019-04-29T06:20:26.513Z,99.99
2019-04-29T06:21:26.499Z,99.99
2019-04-29T06:22:26.457Z,99.99
2019-04-29T06:23:26.488Z,99.99
2019-04-29T06:24:26.397Z,99.99
2019-04-29T06:25:26.476Z,99.99
2019-04-29T06:26:26.353Z,99.99
2019-04-29T06:27:26.388Z,99.99
2019-04-29T06:28:28.074Z,99.99
2019-04-29T06:29:26.299Z,99.99
2019-04-29T06:30:26.226Z,99.99
2019-04-29T06:31:26.321Z,99.99
2019-04-29T06:32:26.476Z,99.99
2019-04-29T06:33:29.035Z,99.99
2019-04-29T06:34:26.129Z,99.99
2019-04-29T06:35:26.087Z,99.99
2019-04-29T06:36:26.154Z,99.99
2019-04-29T06:37:26.027Z,99.99
2019-04-29T06:38:26.060Z,99.99
2019-04-29T06:39:25.969Z,99.99
2019-04-29T06:40:25.974Z,99.99
2019-04-29T06:41:25.930Z,99.99
2019-04-29T06:42:25.988Z,99.99
2019-04-29T06:43:28.752Z,99.99
2019-04-29T06:44:25.896Z,99.99
2019-04-29T06:45:25.818Z,99.99
2019-04-29T06:46:25.807Z,99.99
2019-04-29T06:47:25.746Z,99.99
2019-04-29T06:48:25.722Z,99.99
2019-04-29T06:49:25.692Z,99.99
2019-04-29T06:50:25.731Z,99.99
2019-04-29T06:51:25.638Z,99.99
2019-04-29T06:52:25.649Z,99.99
2019-04-29T06:53:25.606Z,99.99
2019-04-29T06:54:25.661Z,99.99
2019-04-29T06:55:25.528Z,99.99
2019-04-29T06:56:25.569Z,99.99
2019-04-29T06:57:25.471Z,99.99
2019-04-29T06:58:25.485Z,99.99
2019-04-29T06:59:25.423Z,99.99
2019-04-29T07:00:25.498Z,99.99
2019-04-29T07:01:25.368Z,99.99
2019-04-29T07:02:25.410Z,99.99
2019-04-29T07:03:26.584Z,99.99
2019-04-29T07:04:25.277Z,99.99
2019-04-29T07:05:25.259Z,99.99
2019-04-29T07:06:25.410Z,99.99
2019-04-29T07:07:25.198Z,99.99
2019-04-29T07:08:25.255Z,99.99
2019-04-29T07:09:25.178Z,99.99
2019-04-29T07:10:27.095Z,99.99
2019-04-29T07:11:25.085Z,99.99
2019-04-29T07:12:25.171Z,99.99
2019-04-29T07:13:25.047Z,99.99
2019-04-29T07:14:28.396Z,99.99
2019-04-29T07:15:24.990Z,99.99
2019-04-29T07:16:27.315Z,99.99
2019-04-29T07:17:25.003Z,99.99
2019-04-29T07:18:24.898Z,99.99
2019-04-29T07:19:26.563Z,99.99
2019-04-29T07:20:24.837Z,99.99
2019-04-29T07:21:24.928Z,99.99
2019-04-29T07:22:25.850Z,99.99
2019-04-29T07:23:24.851Z,99.99
2019-04-29T07:24:24.740Z,99.99
2019-04-29T07:25:28.640Z,99.99
2019-04-29T07:26:24.733Z,99.99
2019-04-29T07:27:24.658Z,99.99
2019-04-29T07:28:24.670Z,99.99
2019-04-29T07:29:29.666Z,99.99
2019-04-29T07:30:24.686Z,99.99
2019-04-29T07:31:28.304Z,99.99
2019-04-29T07:32:24.515Z,99.99
2019-04-29T07:33:24.629Z,99.99
2019-04-29T07:34:24.458Z,99.99
2019-04-29T07:35:24.518Z,99.99
2019-04-29T07:36:24.406Z,99.99
2019-04-29T07:37:24.376Z,99.99
2019-04-29T07:38:24.436Z,99.99
2019-04-29T07:39:26.792Z,99.99
2019-04-29T07:40:24.358Z,99.99
2019-04-29T07:41:24.277Z,99.99
2019-04-29T07:42:25.162Z,99.99
2019-04-29T07:43:24.276Z,99.99
2019-04-29T07:44:24.238Z,99.99
2019-04-29T07:45:28.167Z,99.99
2019-04-29T07:46:24.166Z,99.99
2019-04-29T07:47:24.939Z,99.99
2019-04-29T07:48:24.090Z,99.99
2019-04-29T07:49:24.108Z,99.99
2019-04-29T07:50:26.605Z,99.99
2019-04-29T07:51:24.115Z,99.99
2019-04-29T07:52:23.991Z,99.99
2019-04-29T07:53:35.079Z,99.99
2019-04-29T07:54:23.935Z,99.85
2019-04-29T07:55:26.037Z,98.70
2019-04-29T07:56:23.878Z,98.32
2019-04-29T07:57:23.967Z,98.70
2019-04-29T07:58:27.279Z,98.61
2019-04-29T07:59:23.808Z,98.70
2019-04-29T08:00:23.879Z,98.70
2019-04-29T08:01:24.633Z,98.32
2019-04-29T08:02:23.785Z,98.61
2019-04-29T08:03:23.787Z,98.61
2019-04-29T08:04:23.669Z,98.99
2019-04-29T08:05:23.709Z,99.85
2019-04-29T08:06:23.618Z,99.27
2019-04-29T08:07:23.618Z,99.56
2019-04-29T08:08:23.579Z,99.75
2019-04-29T08:09:23.556Z,99.99
2019-04-29T08:10:24.205Z,99.99
2019-04-29T08:11:23.477Z,99.99
2019-04-29T08:12:23.548Z,99.99
2019-04-29T08:13:23.437Z,99.90
2019-04-29T08:14:23.418Z,99.52
2019-04-29T08:15:23.466Z,99.52
2019-04-29T08:16:23.423Z,99.42
2019-04-29T08:17:23.375Z,98.75
2019-04-29T08:18:23.309Z,99.71
2019-04-29T08:19:24.627Z,99.99
2019-04-29T08:20:23.259Z,99.90
2019-04-29T08:21:23.312Z,99.99
2019-04-29T08:22:27.718Z,99.85
2019-04-29T08:23:23.216Z,99.42
2019-04-29T08:24:23.148Z,97.08
2019-04-29T08:25:25.972Z,96.22
2019-04-29T08:26:23.106Z,95.36
2019-04-29T08:27:23.147Z,95.46
2019-04-29T08:28:23.067Z,94.79
2019-04-29T08:29:23.059Z,94.89
2019-04-29T08:30:23.007Z,94.51
2019-04-29T08:31:23.071Z,94.12
2019-04-29T08:32:22.961Z,94.12
2019-04-29T08:33:22.971Z,93.46
2019-04-29T08:34:24.221Z,93.55
2019-04-29T08:35:22.872Z,92.93
2019-04-29T08:36:22.908Z,92.83
2019-04-29T08:37:24.914Z,92.07
2019-04-29T08:38:22.919Z,92.26
2019-04-29T08:39:25.058Z,92.26
2019-04-29T08:40:22.746Z,93.79
2019-04-29T08:41:28.441Z,93.31
2019-04-29T08:42:22.735Z,90.92
2019-04-29T08:43:22.670Z,91.30
2019-04-29T08:44:22.757Z,89.25
2019-04-29T08:45:22.617Z,86.96
2019-04-29T08:46:22.668Z,85.62
2019-04-29T08:47:23.566Z,86.10
2019-04-29T08:48:22.588Z,86.29
2019-04-29T08:49:22.529Z,86.00
2019-04-29T08:50:22.599Z,85.52
2019-04-29T08:51:22.498Z,84.89
2019-04-29T08:52:22.449Z,84.99
2019-04-29T08:53:22.506Z,83.84
2019-04-29T08:54:22.411Z,83.27
2019-04-29T08:55:22.430Z,81.84
2019-04-29T08:56:22.438Z,81.93
2019-04-29T08:57:22.323Z,81.68
2019-04-29T08:58:22.338Z,81.88
2019-04-29T08:59:24.557Z,81.68
2019-04-29T09:00:22.368Z,82.07
2019-04-29T09:01:24.574Z,82.40
2019-04-29T09:02:34.675Z,82.49
2019-04-29T09:03:23.370Z,81.20
2019-04-29T09:04:22.178Z,81.20
2019-04-29T09:05:22.127Z,80.62
2019-04-29T09:06:22.190Z,81.23
2019-04-29T09:07:23.134Z,81.23
2019-04-29T09:08:22.172Z,80.60
2019-04-29T09:09:29.214Z,78.30
2019-04-29T09:10:22.120Z,77.86
2019-04-29T09:11:21.996Z,77.09
2019-04-29T09:12:24.237Z,75.75
2019-04-29T09:13:21.939Z,76.07
2019-04-29T09:14:21.938Z,74.73
2019-04-29T09:15:21.886Z,74.16
2019-04-29T09:16:21.966Z,74.01
2019-04-29T09:17:21.848Z,73.91
2019-04-29T09:18:21.867Z,73.14
2019-04-29T09:19:21.796Z,72.18
2019-04-29T09:20:21.879Z,70.17
2019-04-29T09:21:21.746Z,73.91
2019-04-29T09:22:21.797Z,74.62
2019-04-29T09:23:21.707Z,71.55
2019-04-29T09:24:21.710Z,68.95
2019-04-29T09:25:26.286Z,68.95
2019-04-29T09:26:24.271Z,68.85
2019-04-29T09:27:21.605Z,69.08
2019-04-29T09:28:27.181Z,69.46
2019-04-29T09:29:21.647Z,69.12
2019-04-29T09:30:21.547Z,66.42
2019-04-29T09:31:21.553Z,66.30
2019-04-29T09:32:21.502Z,68.83
2019-04-29T09:33:21.472Z,69.60
2019-04-29T09:34:24.676Z,70.65
2019-04-29T09:35:21.478Z,69.82
2019-04-29T09:36:21.413Z,67.55
2019-04-29T09:37:23.002Z,65.33
2019-04-29T09:38:21.355Z,63.31
2019-04-29T09:39:21.488Z,63.06
2019-04-29T09:40:21.405Z,59.59
2019-04-29T09:41:21.297Z,63.15
2019-04-29T09:42:21.327Z,62.12
2019-04-29T09:43:25.255Z,62.25
2019-04-29T09:44:21.228Z,63.06
2019-04-29T09:45:24.334Z,58.84
2019-04-29T09:46:21.269Z,55.49
2019-04-29T09:47:21.167Z,54.69
2019-04-29T09:48:21.167Z,54.69
2019-04-29T09:49:21.167Z,56.33
2019-04-29T09:50:21.119Z,54.21
2019-04-29T09:51:22.534Z,54.31
2019-04-29T09:52:21.070Z,54.14
2019-04-29T09:53:21.088Z,55.04
2019-04-29T09:54:21.019Z,53.39
2019-04-29T09:55:21.107Z,54.58
2019-04-29T09:56:20.987Z,51.01
2019-04-29T09:57:21.029Z,50.79
2019-04-29T09:58:20.926Z,50.38
2019-04-29T09:59:20.925Z,51.99
2019-04-29T10:00:20.886Z,54.79
2019-04-29T10:01:21.116Z,55.36
2019-04-29T10:02:20.847Z,53.92
2019-04-29T10:03:20.865Z,54.66
2019-04-29T10:04:20.819Z,57.10
2019-04-29T10:05:20.786Z,57.10
2019-04-29T10:06:20.776Z,55.56
2019-04-29T10:07:20.776Z,54.40
2019-04-29T10:08:20.729Z,53.51
2019-04-29T10:09:20.796Z,53.03
2019-04-29T10:10:20.691Z,53.94
2019-04-29T10:11:20.706Z,53.84
2019-04-29T10:12:20.648Z,55.26
2019-04-29T10:13:20.728Z,56.29
2019-04-29T10:14:20.628Z,58.22
2019-04-29T10:15:20.636Z,58.12
2019-04-29T10:16:20.567Z,58.98
2019-04-29T10:17:20.657Z,58.98
2019-04-29T10:18:20.526Z,58.79
2019-04-29T10:19:20.554Z,58.50
2019-04-29T10:20:20.487Z,57.25
2019-04-29T10:21:21.414Z,56.84
2019-04-29T10:22:20.448Z,59.47
2019-04-29T10:23:20.486Z,57.73
2019-04-29T10:24:20.417Z,59.75
2019-04-29T10:25:20.494Z,58.63
2019-04-29T10:26:20.376Z,56.22
2019-04-29T10:27:20.411Z,56.99
2019-04-29T10:28:20.325Z,55.29
2019-04-29T10:29:20.426Z,55.77
2019-04-29T10:30:20.301Z,57.05
2019-04-29T10:31:20.335Z,55.51
2019-04-29T10:32:20.347Z,54.54
2019-04-29T10:33:22.925Z,54.44
2019-04-29T10:34:20.259Z,55.89
2019-04-29T10:35:20.204Z,55.54
2019-04-29T10:36:21.724Z,53.89
2019-04-29T10:37:23.730Z,53.67
2019-04-29T10:38:20.148Z,53.77
2019-04-29T10:39:22.679Z,56.30
2019-04-29T10:40:20.096Z,57.75
2019-04-29T10:41:20.105Z,56.43
2019-04-29T10:42:22.727Z,55.01
2019-04-29T10:43:20.035Z,51.92
2019-04-29T10:44:20.016Z,51.25
2019-04-29T10:45:20.027Z,50.57
2019-04-29T10:46:19.989Z,52.50
2019-04-29T10:47:20.041Z,52.40
2019-04-29T10:48:20.089Z,51.73
2019-04-29T10:49:19.926Z,50.50
2019-04-29T10:50:19.967Z,51.17
2019-04-29T10:51:23.328Z,55.04
2019-04-29T10:52:19.980Z,54.39
2019-04-29T10:53:19.875Z,51.20
2019-04-29T10:54:19.825Z,48.88
2019-04-29T10:55:19.894Z,48.95
2019-04-29T10:56:19.795Z,49.12
2019-04-29T10:57:19.806Z,49.39
2019-04-29T10:58:21.988Z,49.27
2019-04-29T10:59:19.816Z,50.49
2019-04-29T11:00:21.783Z,51.26
2019-04-29T11:01:19.726Z,53.61
2019-04-29T11:02:19.675Z,52.93
2019-04-29T11:03:20.705Z,53.03
2019-04-29T11:04:19.663Z,51.41
2019-04-29T11:05:19.636Z,53.15
2019-04-29T11:06:19.666Z,52.11
2019-04-29T11:07:26.395Z,52.11
2019-04-29T11:08:19.587Z,51.95
2019-04-29T11:09:19.587Z,52.23
2019-04-29T11:10:25.278Z,51.75
2019-04-29T11:11:23.372Z,50.57
2019-04-29T11:12:19.649Z,52.40
2019-04-29T11:13:19.477Z,51.63
2019-04-29T11:14:19.515Z,50.54
2019-04-29T11:15:19.532Z,50.42
2019-04-29T11:16:23.009Z,51.56
2019-04-29T11:17:19.436Z,52.20
2019-04-29T11:18:23.233Z,52.69
2019-04-29T11:19:19.450Z,53.33
2019-04-29T11:20:21.509Z,53.91
2019-04-29T11:21:19.335Z,55.33
2019-04-29T11:22:19.368Z,55.26
2019-04-29T11:23:19.316Z,56.51
2019-04-29T11:24:19.385Z,55.19
2019-04-29T11:25:19.259Z,55.02
2019-04-29T11:26:19.235Z,54.18
2019-04-29T11:27:19.227Z,53.83
2019-04-29T11:28:19.308Z,51.34
2019-04-29T11:29:22.084Z,50.47
2019-04-29T11:30:19.217Z,49.02
2019-04-29T11:31:19.442Z,48.06
2019-04-29T11:32:19.136Z,49.32
2019-04-29T11:33:19.136Z,49.32
2019-04-29T11:34:19.099Z,49.34
2019-04-29T11:35:19.158Z,49.70
2019-04-29T11:36:19.057Z,50.47
2019-04-29T11:37:19.548Z,51.22
2019-04-29T11:38:19.039Z,51.20
2019-04-29T11:39:19.088Z,51.29
2019-04-29T11:40:20.493Z,52.33
2019-04-29T11:41:20.204Z,51.65
2019-04-29T11:42:18.957Z,51.62
2019-04-29T11:43:19.005Z,52.27
2019-04-29T11:44:21.996Z,52.37
2019-04-29T11:45:18.916Z,53.40
2019-04-29T11:46:20.986Z,54.46
2019-04-29T11:47:20.997Z,54.17
2019-04-29T11:48:18.858Z,54.82
2019-04-29T11:49:18.846Z,54.56
2019-04-29T11:50:18.806Z,54.39
2019-04-29T11:51:18.860Z,54.58
2019-04-29T11:52:18.777Z,53.45
2019-04-29T11:53:18.766Z,54.74
2019-04-29T11:54:18.727Z,54.57
2019-04-29T11:55:20.117Z,55.27
2019-04-29T11:56:18.697Z,53.63
2019-04-29T11:57:18.701Z,54.72
2019-04-29T11:58:18.669Z,53.17
2019-04-29T11:59:18.756Z,50.38
2019-04-29T12:00:18.719Z,49.90
2019-04-29T12:01:18.605Z,48.13
2019-04-29T12:02:18.640Z,49.00
2019-04-29T12:03:19.221Z,51.22
2019-04-29T12:04:18.559Z,51.73
2019-04-29T12:05:18.541Z,53.37
2019-04-29T12:06:20.766Z,52.43
2019-04-29T12:07:21.134Z,50.71
2019-04-29T12:08:18.620Z,48.39
2019-04-29T12:09:18.458Z,47.70
2019-04-29T12:10:18.486Z,48.95
2019-04-29T12:11:18.428Z,48.95
2019-04-29T12:12:18.498Z,49.12
2019-04-29T12:13:18.959Z,49.00
2019-04-29T12:14:18.418Z,49.07
2019-04-29T12:15:18.347Z,50.35
2019-04-29T12:16:19.814Z,48.79
2019-04-29T12:17:18.317Z,49.77
2019-04-29T12:18:18.339Z,47.65
2019-04-29T12:19:21.291Z,48.61
2019-04-29T12:20:18.265Z,48.44
2019-04-29T12:21:18.253Z,47.96
2019-04-29T12:22:28.470Z,47.96
2019-04-29T12:23:18.207Z,49.02
2019-04-29T12:24:18.278Z,49.32
2019-04-29T12:25:18.164Z,49.82
2019-04-29T12:26:18.186Z,47.43
2019-04-29T12:27:19.873Z,47.91
2019-04-29T12:28:19.558Z,49.85
2019-04-29T12:29:19.475Z,49.39
2019-04-29T12:30:18.188Z,48.90
2019-04-29T12:31:18.141Z,48.83
2019-04-29T12:32:20.759Z,46.70
2019-04-29T12:33:18.135Z,44.29
2019-04-29T12:34:18.033Z,43.32
2019-04-29T12:35:21.706Z,44.65
2019-04-29T12:36:17.977Z,43.30
2019-04-29T12:37:18.068Z,44.63
2019-04-29T12:38:17.961Z,44.94
2019-04-29T12:39:21.630Z,46.30
2019-04-29T12:40:17.910Z,47.19
2019-04-29T12:41:21.184Z,47.50
2019-04-29T12:42:17.877Z,46.15
2019-04-29T12:43:17.899Z,48.08
2019-04-29T12:44:17.836Z,46.44
2019-04-29T12:45:20.274Z,46.20
2019-04-29T12:46:17.813Z,46.85
2019-04-29T12:47:26.363Z,47.41
2019-04-29T12:48:24.990Z,47.96
2019-04-29T12:49:17.765Z,47.65
2019-04-29T12:50:21.599Z,48.79
2019-04-29T12:51:17.731Z,49.65
2019-04-29T12:52:17.756Z,50.62